Time;durP1;ratioP1;P1;durP2;ratioP2;P2;SDS_P1;SDS_P2;PMS_P1;PMS_P2;Temp;Humidity;BMP_temperature;BMP_pressure;BME280_temperature;BME280_humidity;BME280_pressure;Samples;Min_cycle;Max_cycle;Signal;HPM_P1;HPM_P2
2022/03/24 00:01:34;;;;;;;1999.90;999.90;;;8.70;99.90;;;;;;5013139;28;20207;-70
2022/03/24 00:04:00;;;;;;;1999.90;999.90;;;8.50;99.90;;;;;;5012802;28;20445;-71
2022/03/24 00:06:25;;;;;;;1999.90;999.90;;;8.30;99.90;;;;;;5012904;28;20422;-70
2022/03/24 00:08:51;;;;;;;1999.90;999.90;;;8.20;99.90;;;;;;5013037;28;20171;-69
2022/03/24 00:11:17;;;;;;;1999.90;999.90;;;8.00;99.90;;;;;;5012932;28;20170;-70
2022/03/24 00:13:43;;;;;;;1999.90;999.90;;;8.00;99.90;;;;;;5012836;28;20227;-70
2022/03/24 00:16:09;;;;;;;1999.90;999.90;;;8.00;99.90;;;;;;5012483;28;20517;-70
2022/03/24 00:18:35;;;;;;;1999.90;999.90;;;8.00;99.90;;;;;;5012879;28;20410;-70
2022/03/24 00:21:01;;;;;;;1999.90;999.90;;;8.00;99.90;;;;;;5012769;28;20467;-70
2022/03/24 00:23:27;;;;;;;1999.90;999.90;;;8.10;99.90;;;;;;5012798;28;20694;-70
2022/03/24 00:25:53;;;;;;;1999.90;999.90;;;8.20;99.90;;;;;;5012354;28;20837;-70
2022/03/24 00:28:19;;;;;;;1999.90;999.90;;;8.00;99.90;;;;;;5012678;28;20406;-69
2022/03/24 00:30:45;;;;;;;1999.90;999.90;;;7.90;99.90;;;;;;5012632;28;20409;-69
2022/03/24 00:33:12;;;;;;;1999.90;999.90;;;7.70;99.90;;;;;;5012632;28;20294;-71
2022/03/24 00:35:38;;;;;;;1999.90;999.90;;;7.70;99.90;;;;;;5012308;28;20175;-70
2022/03/24 00:38:05;;;;;;;1999.90;999.90;;;7.70;99.90;;;;;;5012433;28;20427;-69
2022/03/24 00:40:31;;;;;;;1999.90;999.90;;;7.80;99.90;;;;;;5012616;28;20896;-71
2022/03/24 00:42:59;;;;;;;1999.90;999.90;;;7.90;99.90;;;;;;5012498;28;20413;-71
2022/03/24 00:45:24;;;;;;;1999.90;999.90;;;7.90;99.90;;;;;;5012135;28;20481;-69
2022/03/24 00:47:50;;;;;;;1999.90;999.90;;;7.90;99.90;;;;;;5012361;28;21115;-69
2022/03/24 00:50:16;;;;;;;1999.90;999.90;;;7.90;99.90;;;;;;5012391;28;20250;-69
2022/03/24 00:52:41;;;;;;;1999.90;999.90;;;7.90;99.90;;;;;;5012319;28;20174;-70
2022/03/24 00:55:11;;;;;;;1999.90;999.90;;;7.80;99.90;;;;;;5012064;28;20207;-70
2022/03/24 00:57:37;;;;;;;1999.90;999.90;;;7.80;99.90;;;;;;5012320;28;20186;-69
2022/03/24 01:00:03;;;;;;;1999.90;999.90;;;7.80;99.90;;;;;;5012067;28;20417;-70
2022/03/24 01:02:29;;;;;;;1999.90;999.90;;;7.80;99.90;;;;;;5012275;28;20412;-69
2022/03/24 01:04:55;;;;;;;1999.90;999.90;;;7.70;99.90;;;;;;5011877;28;20465;-69
2022/03/24 01:07:21;;;;;;;1999.90;999.90;;;7.60;99.90;;;;;;5012138;28;20195;-71
2022/03/24 01:09:47;;;;;;;1999.90;999.90;;;7.60;99.90;;;;;;5012162;28;20440;-71
2022/03/24 01:12:13;;;;;;;1999.90;999.90;;;7.60;99.90;;;;;;5012197;28;20929;-69
2022/03/24 01:14:39;;;;;;;1999.90;999.90;;;7.60;99.90;;;;;;5011746;28;20563;-69
2022/03/24 01:17:07;;;;;;;1999.90;999.90;;;7.50;99.90;;;;;;5011975;28;20448;-69
2022/03/24 01:19:33;;;;;;;1999.90;999.90;;;7.50;99.90;;;;;;5012089;28;20413;-70
2022/03/24 01:22:00;;;;;;;1999.90;999.90;;;7.40;99.90;;;;;;5012057;28;20412;-69
2022/03/24 01:24:26;;;;;;;1999.90;999.90;;;7.40;99.90;;;;;;5011800;28;20421;-69
2022/03/24 01:26:51;;;;;;;1999.90;999.90;;;7.30;99.90;;;;;;5011954;28;20972;-69
2022/03/24 01:29:22;;;;;;;1999.90;999.90;;;7.30;99.90;;;;;;5012005;28;20490;-70
2022/03/24 01:31:47;;;;;;;1999.90;999.90;;;7.20;99.90;;;;;;5012063;28;20199;-69
2022/03/24 01:34:13;;;;;;;1999.90;999.90;;;7.20;99.90;;;;;;5011565;28;20809;-70
2022/03/24 01:36:39;;;;;;;1999.90;999.90;;;7.10;99.90;;;;;;5011902;28;20223;-69
2022/03/24 01:39:04;;;;;;;1999.90;999.90;;;7.00;99.90;;;;;;5011918;28;20436;-69
2022/03/24 01:41:30;;;;;;;1999.90;999.90;;;7.10;99.90;;;;;;5011903;28;20311;-70
2022/03/24 01:43:56;;;;;;;1999.90;999.90;;;7.10;99.90;;;;;;5011775;28;20566;-70
2022/03/24 01:46:22;;;;;;;1999.90;999.90;;;7.10;99.90;;;;;;5011570;28;20229;-69
2022/03/24 01:48:48;;;;;;;1999.90;999.90;;;7.00;99.90;;;;;;5011869;28;20173;-69
2022/03/24 01:51:13;;;;;;;1999.90;999.90;;;6.80;99.90;;;;;;5011791;28;20396;-69
2022/03/24 01:53:39;;;;;;;1999.90;999.90;;;6.70;99.90;;;;;;5011706;28;20170;-70
2022/03/24 01:56:07;;;;;;;1999.90;999.90;;;6.70;99.90;;;;;;5011383;28;20678;-70
2022/03/24 01:58:35;;;;;;;1999.90;999.90;;;6.50;99.90;;;;;;5011707;28;20431;-69
2022/03/24 02:01:27;;;;;;;1999.90;999.90;;;6.60;99.90;;;;;;5011835;28;20778;-70
2022/03/24 02:03:55;;;;;;;1999.90;999.90;;;6.60;99.90;;;;;;5011649;28;20405;-70
2022/03/24 02:06:20;;;;;;;1999.90;999.90;;;6.60;99.90;;;;;;5011525;28;20511;-70
2022/03/24 02:08:46;;;;;;;1999.90;999.90;;;6.80;99.90;;;;;;5011684;28;20409;-70
2022/03/24 02:11:12;;;;;;;1999.90;999.90;;;6.50;99.90;;;;;;5011796;28;20169;-70
2022/03/24 02:13:37;;;;;;;1999.90;999.90;;;6.50;99.90;;;;;;5013897;28;20226;-70
2022/03/24 02:16:10;;;;;;;1999.90;999.90;;;6.40;99.90;;;;;;5014608;28;20584;-70
2022/03/24 02:18:36;;;;;;;1999.90;999.90;;;6.50;99.90;;;;;;5015712;28;20177;-70
2022/03/24 02:21:02;;;;;;;1999.90;999.90;;;6.40;99.90;;;;;;5015047;28;20896;-70
2022/03/24 02:23:28;;;;;;;1999.90;999.90;;;6.40;99.90;;;;;;5014968;28;20204;-69
2022/03/24 02:25:55;;;;;;;1999.90;999.90;;;6.30;99.90;;;;;;5014636;28;20418;-71
2022/03/24 02:28:22;;;;;;;1999.90;999.90;;;6.30;99.90;;;;;;5014896;28;20205;-69
2022/03/24 02:30:50;;;;;;;1999.90;999.90;;;6.30;99.90;;;;;;5014917;28;20416;-70
2022/03/24 02:33:23;;;;;;;1999.90;999.90;;;6.30;99.90;;;;;;5014773;28;20415;-70
2022/03/24 02:35:51;;;;;;;1999.90;999.90;;;6.30;99.90;;;;;;5014441;28;20444;-70
2022/03/24 02:38:21;;;;;;;1999.90;999.90;;;6.20;99.90;;;;;;5014749;28;20416;-70
2022/03/24 02:40:49;;;;;;;1999.90;999.90;;;6.10;99.90;;;;;;5014719;28;20407;-69
2022/03/24 02:43:20;;;;;;;1999.90;999.90;;;6.10;99.90;;;;;;5014686;28;20409;-70
2022/03/24 02:45:50;;;;;;;1999.90;999.90;;;6.10;99.90;;;;;;5014398;28;20426;-70
2022/03/24 02:48:16;;;;;;;1999.90;999.90;;;6.00;99.90;;;;;;5014559;28;20412;-70
2022/03/24 02:50:42;;;;;;;1999.90;999.90;;;6.00;99.90;;;;;;5014454;28;20400;-70
2022/03/24 02:53:08;;;;;;;1999.90;999.90;;;6.00;99.90;;;;;;5015302;28;20411;-70
2022/03/24 02:55:34;;;;;;;1999.90;999.90;;;5.90;99.90;;;;;;5014163;28;20447;-71
2022/03/24 02:57:59;;;;;;;1999.90;999.90;;;6.00;99.90;;;;;;5014284;28;20432;-71
2022/03/24 03:00:27;;;;;;;1999.90;999.90;;;6.00;99.90;;;;;;5014325;28;20219;-71
2022/03/24 03:02:53;;;;;;;1999.90;999.90;;;6.00;99.90;;;;;;5014221;28;20168;-70
2022/03/24 03:05:19;;;;;;;1999.90;999.90;;;5.90;99.90;;;;;;5013954;28;20420;-71
2022/03/24 03:07:45;;;;;;;1999.90;999.90;;;5.80;99.90;;;;;;5014115;28;20215;-71
2022/03/24 03:10:11;;;;;;;1999.90;999.90;;;5.70;99.90;;;;;;5014111;28;20420;-70
2022/03/24 03:12:37;;;;;;;1999.90;999.90;;;5.60;99.90;;;;;;5014197;28;20593;-70
2022/03/24 03:15:04;;;;;;;1999.90;999.90;;;5.60;99.90;;;;;;5013680;28;20440;-70
2022/03/24 03:17:29;;;;;;;1999.90;999.90;;;5.60;99.90;;;;;;5013848;28;20207;-71
2022/03/24 03:19:56;;;;;;;1999.90;999.90;;;5.60;99.90;;;;;;5013926;28;20400;-70
2022/03/24 03:22:22;;;;;;;1999.90;999.90;;;5.60;99.90;;;;;;5013925;28;20161;-71
2022/03/24 03:24:48;;;;;;;1999.90;999.90;;;5.60;99.90;;;;;;5013642;28;20433;-71
2022/03/24 03:27:14;;;;;;;1999.90;999.90;;;5.60;99.90;;;;;;5013754;28;20429;-71
2022/03/24 03:29:41;;;;;;;1999.90;999.90;;;5.50;99.90;;;;;;5013807;28;20408;-71
2022/03/24 03:32:09;;;;;;;1999.90;999.90;;;5.30;99.90;;;;;;5013696;28;20408;-70
2022/03/24 03:34:34;;;;;;;1999.90;999.90;;;5.30;99.90;;;;;;5013345;28;20483;-70
2022/03/24 03:37:00;;;;;;;1999.90;999.90;;;5.40;99.90;;;;;;5013511;28;20420;-71
2022/03/24 03:39:26;;;;;;;1999.90;999.90;;;5.40;99.90;;;;;;5013678;28;20204;-71
2022/03/24 03:41:54;;;;;;;1999.90;999.90;;;5.30;99.90;;;;;;5013581;28;20173;-71
2022/03/24 03:44:20;;;;;;;1999.90;999.90;;;5.30;99.90;;;;;;5013211;28;20413;-71
2022/03/24 03:46:46;;;;;;;1999.90;999.90;;;5.40;99.90;;;;;;5013318;28;20439;-70
2022/03/24 03:49:12;;;;;;;1999.90;999.90;;;5.40;99.90;;;;;;5013493;28;20840;-70
2022/03/24 03:51:38;;;;;;;1999.90;999.90;;;5.40;99.90;;;;;;5013433;28;20252;-70
2022/03/24 03:54:04;;;;;;;1999.90;999.90;;;5.30;99.90;;;;;;5013063;28;20543;-70
2022/03/24 03:56:30;;;;;;;1999.90;999.90;;;5.20;99.90;;;;;;5013395;28;20577;-71
2022/03/24 03:58:56;;;;;;;1999.90;999.90;;;5.10;99.90;;;;;;5013399;28;20450;-70
2022/03/24 04:01:22;;;;;;;1999.90;999.90;;;4.90;99.90;;;;;;5013109;28;20478;-71
2022/03/24 04:03:48;;;;;;;1999.90;999.90;;;4.90;99.90;;;;;;5013149;28;20165;-70
2022/03/24 04:06:14;;;;;;;1999.90;999.90;;;5.00;99.90;;;;;;5012836;28;20189;-70
2022/03/24 04:08:42;;;;;;;1999.90;999.90;;;5.00;99.90;;;;;;5013041;28;20496;-70
2022/03/24 04:11:10;;;;;;;1999.90;999.90;;;5.00;99.90;;;;;;5012984;28;20820;-70
2022/03/24 04:13:43;;;;;;;1999.90;999.90;;;5.00;99.90;;;;;;5012991;28;20452;-71
2022/03/24 04:16:13;;;;;;;1999.90;999.90;;;4.90;99.90;;;;;;5012442;28;20473;-71
2022/03/24 04:18:41;;;;;;;1999.90;999.90;;;5.00;99.90;;;;;;5012935;28;20416;-71
2022/03/24 04:21:07;;;;;;;1999.90;999.90;;;4.90;99.90;;;;;;5012986;28;20400;-70
2022/03/24 04:23:35;;;;;;;1999.90;999.90;;;4.80;99.90;;;;;;5012863;28;20407;-71
2022/03/24 04:26:01;;;;;;;1999.90;999.90;;;4.70;99.90;;;;;;5011310;28;20412;-71
2022/03/24 04:28:27;;;;;;;1999.90;999.90;;;4.70;99.90;;;;;;5012688;28;20404;-71
2022/03/24 04:30:52;;;;;;;1999.90;999.90;;;4.70;99.90;;;;;;5012624;28;20173;-70
2022/03/24 04:33:18;;;;;;;1999.90;999.90;;;4.70;99.90;;;;;;5012655;28;20230;-71
2022/03/24 04:35:44;;;;;;;1999.90;999.90;;;4.70;99.90;;;;;;5011910;28;20205;-71
2022/03/24 04:38:10;;;;;;;1999.90;999.90;;;4.70;99.90;;;;;;5012556;28;20724;-71
2022/03/24 04:40:35;;;;;;;1999.90;999.90;;;4.70;99.90;;;;;;5012608;28;20440;-71
2022/03/24 04:43:02;;;;;;;1999.90;999.90;;;4.70;99.90;;;;;;5012560;28;20157;-70
2022/03/24 04:45:29;;;;;;;1999.90;999.90;;;4.70;99.90;;;;;;5012108;28;20180;-71
2022/03/24 04:47:55;;;;;;;1999.90;999.90;;;4.70;99.90;;;;;;5012504;28;20503;-70
2022/03/24 04:50:21;;;;;;;1999.90;999.90;;;4.70;99.90;;;;;;5012374;28;20427;-70
2022/03/24 04:52:47;;;;;;;1999.90;999.90;;;4.60;99.90;;;;;;5012419;28;20470;-71
2022/03/24 04:55:13;;;;;;;1999.90;999.90;;;4.50;99.90;;;;;;5012080;28;20193;-70
2022/03/24 04:57:39;;;;;;;1999.90;999.90;;;4.50;99.90;;;;;;5012204;28;20430;-70
2022/03/24 05:00:05;;;;;;;1999.90;999.90;;;4.50;99.90;;;;;;5012264;28;20487;-71
2022/03/24 05:02:31;;;;;;;1999.90;999.90;;;4.50;99.90;;;;;;5012396;28;20176;-70
2022/03/24 05:04:57;;;;;;;1999.90;999.90;;;4.50;99.90;;;;;;5012011;28;20414;-70
2022/03/24 05:07:23;;;;;;;1999.90;999.90;;;4.40;99.90;;;;;;5012088;28;20200;-70
2022/03/24 05:09:50;;;;;;;1999.90;999.90;;;4.40;99.90;;;;;;5012236;28;20431;-71
2022/03/24 05:12:16;;;;;;;1999.90;999.90;;;4.40;99.90;;;;;;5012254;28;20176;-71
2022/03/24 05:14:42;;;;;;;1999.90;999.90;;;4.40;99.90;;;;;;5011767;28;20489;-71
2022/03/24 05:17:08;;;;;;;1999.90;999.90;;;4.30;99.90;;;;;;5011915;28;20435;-70
2022/03/24 05:19:34;;;;;;;1999.90;999.90;;;4.40;99.90;;;;;;5012243;28;20929;-71
2022/03/24 05:22:01;;;;;;;1999.90;999.90;;;4.40;99.90;;;;;;5012108;28;20668;-71
2022/03/24 05:24:26;;;;;;;1999.90;999.90;;;4.40;99.90;;;;;;5011830;28;20800;-71
2022/03/24 05:26:52;;;;;;;1999.90;999.90;;;4.40;99.90;;;;;;5011942;28;20427;-71
2022/03/24 05:29:17;;;;;;;1999.90;999.90;;;4.40;99.90;;;;;;5011925;28;20248;-71
2022/03/24 05:31:43;;;;;;;1999.90;999.90;;;4.30;99.90;;;;;;5012022;28;20176;-71
2022/03/24 05:34:09;;;;;;;1999.90;999.90;;;4.20;99.90;;;;;;5011605;28;20674;-71
2022/03/24 05:36:34;;;;;;;1999.90;999.90;;;4.20;99.90;;;;;;5011929;28;20190;-71
2022/03/24 05:39:00;;;;;;;1999.90;999.90;;;4.20;99.90;;;;;;5011875;28;20161;-70
2022/03/24 05:41:26;;;;;;;1999.90;999.90;;;4.20;99.90;;;;;;5011861;28;20173;-71
2022/03/24 05:44:04;;;;;;;1999.90;999.90;;;4.30;99.90;;;;;;5011808;28;20250;-71
2022/03/24 05:46:32;;;;;;;1999.90;999.90;;;4.30;99.90;;;;;;5012609;28;20420;-70
2022/03/24 05:48:58;;;;;;;1999.90;999.90;;;4.30;99.90;;;;;;5015721;28;20539;-70
2022/03/24 05:51:25;;;;;;;1999.90;999.90;;;4.30;99.90;;;;;;5015606;28;20439;-70
2022/03/24 05:53:50;;;;;;;1999.90;999.90;;;4.30;99.90;;;;;;5015435;28;20400;-71
2022/03/24 05:56:16;;;;;;;1999.90;999.90;;;4.20;99.90;;;;;;5015194;28;20427;-70
2022/03/24 05:58:43;;;;;;;1999.90;999.90;;;4.10;99.90;;;;;;5015466;28;20227;-70
2022/03/24 06:01:09;;;;;;;1999.90;999.90;;;4.10;99.90;;;;;;5014220;28;20511;-70
2022/03/24 06:03:36;;;;;;;1999.90;999.90;;;4.10;99.90;;;;;;5015418;28;20413;-70
2022/03/24 06:06:06;;;;;;;1999.90;999.90;;;4.10;99.90;;;;;;5015070;28;20409;-71
2022/03/24 06:08:33;;;;;;;1999.90;999.90;;;4.20;99.90;;;;;;5015332;28;20412;-71
2022/03/24 06:11:00;;;;;;;1999.90;999.90;;;4.20;99.90;;;;;;5015250;28;20410;-70
2022/03/24 06:13:26;;;;;;;1999.90;999.90;;;4.30;99.90;;;;;;5015255;28;20427;-71
2022/03/24 06:15:52;;;;;;;1999.90;999.90;;;4.40;99.90;;;;;;5014644;28;20455;-70
2022/03/24 06:18:18;;;;;;;1999.90;999.90;;;4.40;99.90;;;;;;5015168;28;20426;-69
2022/03/24 06:20:44;;;;;;;1999.90;999.90;;;4.40;99.90;;;;;;5015139;28;20971;-70
2022/03/24 06:23:09;;;;;;;1999.90;999.90;;;4.50;99.90;;;;;;5014958;28;20576;-70
2022/03/24 06:25:37;;;;;;;1999.90;999.90;;;4.50;99.90;;;;;;5014670;28;20176;-70
2022/03/24 06:28:04;;;;;;;1999.90;999.90;;;4.60;99.90;;;;;;5014832;28;20181;-71
2022/03/24 06:30:30;;;;;;;1999.90;999.90;;;4.70;99.90;;;;;;5014813;28;20900;-70
2022/03/24 06:32:56;;;;;;;1999.90;999.90;;;4.70;99.90;;;;;;5014907;28;20411;-70
2022/03/24 06:35:22;;;;;;;1999.90;999.90;;;4.70;99.90;;;;;;5013167;28;20448;-70
2022/03/24 06:37:50;;;;;;;1999.90;999.90;;;4.80;99.90;;;;;;5014667;28;20181;-70
2022/03/24 06:40:16;;;;;;;1999.90;999.90;;;4.90;99.90;;;;;;5013546;28;20801;-70
2022/03/24 06:42:42;;;;;;;1999.90;999.90;;;5.00;99.90;;;;;;5014829;28;20403;-70
2022/03/24 06:45:10;;;;;;;1999.90;999.90;;;5.10;99.90;;;;;;5014694;28;20835;-70
2022/03/24 06:47:36;;;;;;;1999.90;999.90;;;5.20;99.90;;;;;;5014564;28;20809;-70
2022/03/24 06:50:02;;;;;;;1999.90;999.90;;;5.40;99.90;;;;;;5014506;28;20404;-71
2022/03/24 06:52:28;;;;;;;1999.90;999.90;;;5.50;99.90;;;;;;5014320;28;20404;-70
2022/03/24 06:54:54;;;;;;;1999.90;999.90;;;5.60;99.90;;;;;;5014033;28;20458;-71
2022/03/24 06:57:20;;;;;;;1999.90;999.90;;;5.70;99.90;;;;;;5013982;28;20535;-69
2022/03/24 06:59:45;;;;;;;1999.90;999.90;;;5.90;99.90;;;;;;5014381;28;20161;-69
2022/03/24 07:02:11;;;;;;;1999.90;999.90;;;5.90;99.90;;;;;;5014476;28;21126;-71
2022/03/24 07:04:36;;;;;;;1999.90;999.90;;;6.00;99.90;;;;;;5014094;28;20590;-71
2022/03/24 07:07:06;;;;;;;1999.90;999.90;;;6.20;99.90;;;;;;5014126;28;20251;-71
2022/03/24 07:09:31;;;;;;;1999.90;999.90;;;6.30;99.90;;;;;;5014042;28;20636;-71
2022/03/24 07:11:57;;;;;;;1999.90;999.90;;;6.40;99.90;;;;;;5014121;28;20543;-71
2022/03/24 07:14:24;;;;;;;1999.90;999.90;;;6.60;99.90;;;;;;5013794;28;20219;-71
2022/03/24 07:16:51;;;;;;;1999.90;999.90;;;6.70;99.90;;;;;;5013935;28;20600;-70
2022/03/24 07:19:18;;;;;;;1999.90;999.90;;;6.90;99.90;;;;;;5013958;28;20777;-71
2022/03/24 07:21:44;;;;;;;1999.90;999.90;;;7.00;99.90;;;;;;5013958;28;20415;-70
2022/03/24 07:24:10;;;;;;;1999.90;999.90;;;7.10;99.90;;;;;;5013606;28;20795;-71
2022/03/24 07:26:35;;;;;;;1999.90;999.90;;;7.30;99.90;;;;;;5013809;28;20243;-71
2022/03/24 07:29:02;;;;;;;1999.90;999.90;;;7.40;99.90;;;;;;5013833;28;20220;-71
2022/03/24 07:31:28;;;;;;;1999.90;999.90;;;7.60;99.90;;;;;;5013773;28;20171;-71
2022/03/24 07:33:56;;;;;;;1999.90;999.90;;;7.70;99.90;;;;;;5013815;28;20412;-71
2022/03/24 07:36:22;;;;;;;1999.90;999.90;;;7.80;99.90;;;;;;5013409;28;20448;-71
2022/03/24 07:38:53;;;;;;;1999.90;999.90;;;7.90;99.90;;;;;;5013609;28;20413;-71
2022/03/24 07:41:19;;;;;;;1999.90;999.90;;;8.00;99.90;;;;;;5013649;28;21085;-71
2022/03/24 07:43:45;;;;;;;1999.90;999.90;;;8.10;99.90;;;;;;5013471;28;20405;-71
2022/03/24 07:46:10;;;;;;;1999.90;999.90;;;8.30;99.90;;;;;;5013246;28;20433;-71
2022/03/24 07:48:38;;;;;;;1999.90;999.90;;;8.30;99.90;;;;;;5013436;28;20814;-71
2022/03/24 07:51:03;;;;;;;1999.90;999.90;;;8.50;99.90;;;;;;5013438;28;20176;-71
2022/03/24 07:53:49;;;;;;;1999.90;999.90;;;8.60;99.90;;;;;;5013285;28;20421;-71
2022/03/24 07:56:21;;;;;;;1999.90;999.90;;;8.70;99.90;;;;;;5010110;28;21011;-70
2022/03/24 07:58:47;;;;;;;1999.90;999.90;;;8.90;99.90;;;;;;5012700;28;20829;-70
2022/03/24 08:01:13;;;;;;;1999.90;999.90;;;9.00;99.90;;;;;;5012298;28;20495;-71
2022/03/24 08:03:39;;;;;;;1999.90;999.90;;;9.20;99.90;;;;;;5012601;28;20202;-71
2022/03/24 08:06:05;;;;;;;1999.90;999.90;;;9.30;99.90;;;;;;5012794;28;20455;-71
2022/03/24 08:08:31;;;;;;;1999.90;999.90;;;9.40;99.90;;;;;;5012818;28;20183;-71
2022/03/24 08:10:57;;;;;;;1999.90;999.90;;;9.50;99.90;;;;;;5012549;28;20513;-72
2022/03/24 08:13:24;;;;;;;1999.90;999.90;;;9.70;99.90;;;;;;5013029;28;20172;-71
2022/03/24 08:15:51;;;;;;;1999.90;999.90;;;9.80;99.90;;;;;;5012735;28;20494;-70
2022/03/24 08:18:17;;;;;;;1999.90;999.90;;;9.80;99.90;;;;;;5052703;23;20838;-67
2022/03/24 08:20:47;;;;;;;1999.90;999.90;;;10.00;99.90;;;;;;5013092;28;20407;-67
2022/03/24 08:23:13;;;;;;;1999.90;999.90;;;10.10;99.90;;;;;;5012948;28;20505;-67
2022/03/24 08:25:40;;;;;;;1999.90;999.90;;;10.30;99.90;;;;;;5012083;28;20815;-68
2022/03/24 08:28:06;;;;;;;1999.90;999.90;;;10.30;99.90;;;;;;5012672;28;20431;-67
2022/03/24 08:30:32;;;;;;;1999.90;999.90;;;10.50;99.90;;;;;;5012747;28;20421;-67
2022/03/24 08:32:57;;;;;;;1999.90;999.90;;;10.60;99.90;;;;;;5012798;28;20411;-67
2022/03/24 08:35:23;;;;;;;1999.90;999.90;;;10.70;99.90;;;;;;5012824;28;20533;-69
2022/03/24 08:37:49;;;;;;;1999.90;999.90;;;10.80;99.90;;;;;;5014596;28;20213;-68
2022/03/24 08:40:15;;;;;;;1999.90;999.90;;;10.90;99.90;;;;;;5014086;28;20172;-68
2022/03/24 08:42:42;;;;;;;1999.90;999.90;;;11.00;99.90;;;;;;5007950;28;20714;-67
2022/03/24 08:45:10;;;;;;;1999.90;999.90;;;11.10;99.90;;;;;;4994901;28;20435;-68
2022/03/24 08:47:36;;;;;;;1999.90;999.90;;;11.30;99.90;;;;;;4998062;28;20460;-68
2022/03/24 08:50:03;;;;;;;1999.90;999.90;;;11.40;99.90;;;;;;5002034;28;20457;-68
2022/03/24 08:52:29;;;;;;;1999.90;999.90;;;11.50;99.90;;;;;;4999217;28;20415;-69
2022/03/24 08:54:55;;;;;;;1999.90;999.90;;;11.60;99.90;;;;;;5000632;28;20539;-68
2022/03/24 08:57:27;;;;;;;1999.90;999.90;;;11.70;99.90;;;;;;4999669;28;20190;-68
2022/03/24 09:00:02;;;;;;;1999.90;999.90;;;11.80;99.90;;;;;;5001450;28;20425;-68
2022/03/24 09:02:28;;;;;;;1999.90;999.90;;;12.00;99.90;;;;;;4998601;28;20396;-68
2022/03/24 09:04:54;;;;;;;1999.90;999.90;;;12.20;99.90;;;;;;4999233;28;20417;-69
2022/03/24 09:07:20;;;;;;;1999.90;999.90;;;12.30;99.90;;;;;;5000819;28;20517;-68
2022/03/24 09:09:46;;;;;;;1999.90;999.90;;;12.40;99.90;;;;;;5001491;28;20441;-68
2022/03/24 09:12:12;;;;;;;1999.90;999.90;;;12.50;99.90;;;;;;5002519;28;20186;-68
2022/03/24 09:14:39;;;;;;;1999.90;999.90;;;12.60;99.90;;;;;;5000104;28;20201;-68
2022/03/24 09:17:06;;;;;;;1999.90;999.90;;;12.80;99.90;;;;;;4999935;28;20487;-68
2022/03/24 09:19:33;;;;;;;1999.90;999.90;;;12.90;99.90;;;;;;4999311;28;20401;-68
2022/03/24 09:21:59;;;;;;;1999.90;999.90;;;12.90;99.90;;;;;;5003964;28;20439;-69
2022/03/24 09:24:26;;;;;;;1999.90;999.90;;;13.00;99.90;;;;;;5006035;28;20913;-68
2022/03/24 09:26:53;;;;;;;1999.90;999.90;;;13.20;99.90;;;;;;5007962;28;20436;-68
2022/03/24 09:29:18;;;;;;;1999.90;999.90;;;13.30;99.90;;;;;;5007578;28;20433;-68
2022/03/24 09:31:44;;;;;;;1999.90;999.90;;;13.50;99.90;;;;;;5007786;28;20414;-68
2022/03/24 09:34:10;;;;;;;1999.90;999.90;;;13.60;99.90;;;;;;5006644;28;20635;-68
2022/03/24 09:36:36;;;;;;;1999.90;999.90;;;13.70;99.90;;;;;;5006432;28;20174;-68
2022/03/24 09:39:03;;;;;;;1999.90;999.90;;;13.80;99.90;;;;;;5008079;28;20297;-67
2022/03/24 09:41:30;;;;;;;1999.90;999.90;;;13.90;99.90;;;;;;5007182;28;20912;-69
2022/03/24 09:43:57;;;;;;;1999.90;999.90;;;14.10;99.90;;;;;;5007049;28;20483;-68
2022/03/24 09:46:23;;;;;;;1999.90;999.90;;;14.20;99.90;;;;;;5007585;28;20441;-68
2022/03/24 09:48:49;;;;;;;1999.90;999.90;;;14.30;99.90;;;;;;5006662;28;20436;-68
2022/03/24 09:51:15;;;;;;;1999.90;999.90;;;14.40;99.90;;;;;;5008350;28;20182;-68
2022/03/24 09:53:41;;;;;;;1999.90;999.90;;;14.40;99.90;;;;;;4991395;28;20423;-69
2022/03/24 09:56:07;;;;;;;1999.90;999.90;;;14.60;99.90;;;;;;5008136;28;20467;-68
2022/03/24 09:58:33;;;;;;;1999.90;999.90;;;14.60;99.90;;;;;;5008482;28;20209;-69
2022/03/24 10:01:00;;;;;;;1999.90;999.90;;;14.80;99.90;;;;;;5008919;28;20403;-68
2022/03/24 10:03:26;;;;;;;1999.90;999.90;;;14.80;99.90;;;;;;5009875;28;20404;-68
2022/03/24 10:05:57;;;;;;;1999.90;999.90;;;15.00;99.90;;;;;;5007001;28;20453;-68
2022/03/24 10:08:23;;;;;;;1999.90;999.90;;;15.10;99.90;;;;;;5008285;28;20281;-68
2022/03/24 10:10:48;;;;;;;1999.90;999.90;;;15.20;99.90;;;;;;5006635;28;20420;-68
2022/03/24 10:13:24;;;;;;;1999.90;999.90;;;15.40;99.90;;;;;;5007189;28;20415;-69
2022/03/24 10:15:50;;;;;;;1999.90;999.90;;;15.50;99.90;;;;;;5003927;28;20574;-69
2022/03/24 10:18:16;;;;;;;1999.90;999.90;;;15.70;99.90;;;;;;5001891;28;20454;-67
2022/03/24 10:20:42;;;;;;;1999.90;999.90;;;15.90;99.90;;;;;;5000252;28;20172;-68
2022/03/24 10:23:08;;;;;;;1999.90;999.90;;;16.00;99.90;;;;;;4999357;28;20420;-70
2022/03/24 10:25:39;;;;;;;1999.90;999.90;;;16.00;99.90;;;;;;4998436;28;20186;-69
2022/03/24 10:28:11;;;;;;;1999.90;999.90;;;16.10;99.90;;;;;;4998628;28;20611;-67
2022/03/24 10:30:48;;;;;;;1999.90;999.90;;;16.30;99.90;;;;;;4995322;28;20421;-69
2022/03/24 10:33:38;;;;;;;1999.90;999.90;;;16.40;99.90;;;;;;4994501;28;20406;-68
2022/03/24 10:36:23;;;;;;;1999.90;999.90;;;16.50;99.90;;;;;;4994880;28;20466;-68
2022/03/24 10:38:53;;;;;;;1999.90;999.90;;;16.60;99.90;;;;;;4995217;28;20503;-67
2022/03/24 10:41:27;;;;;;;1999.90;999.90;;;16.80;99.90;;;;;;4995090;28;20397;-68
2022/03/24 10:43:55;;;;;;;1999.90;999.90;;;17.00;99.90;;;;;;4994996;28;20405;-68
2022/03/24 10:46:29;;;;;;;1999.90;999.90;;;17.10;99.90;;;;;;4994873;28;20495;-67
2022/03/24 10:48:55;;;;;;;1999.90;999.90;;;17.20;98.20;;;;;;4994984;28;20412;-67
2022/03/24 10:51:28;;;;;;;1999.90;999.90;;;17.40;97.10;;;;;;4994936;28;20514;-67
2022/03/24 10:54:09;;;;;;;1999.90;999.90;;;17.50;95.50;;;;;;4994866;28;20252;-68
2022/03/24 10:56:39;;;;;;;1999.90;999.90;;;17.60;85.90;;;;;;4994747;28;20485;-67
2022/03/24 10:59:06;;;;;;;1999.90;999.90;;;17.60;84.90;;;;;;4994790;28;20464;-67
2022/03/24 11:01:33;;;;;;;1999.90;999.90;;;17.60;92.10;;;;;;4994785;28;20402;-67
2022/03/24 11:03:59;;;;;;;1999.90;999.90;;;17.70;76.70;;;;;;4994535;28;20400;-67
2022/03/24 11:06:27;;;;;;;1999.90;999.90;;;18.00;83.20;;;;;;4994368;28;20892;-67
2022/03/24 11:08:59;;;;;;;1999.90;999.90;;;18.00;77.10;;;;;;4994481;28;20406;-67
2022/03/24 11:11:25;;;;;;;1999.90;999.90;;;17.70;57.70;;;;;;4994708;28;20404;-68
2022/03/24 11:13:55;;;;;;;1999.90;999.90;;;17.80;60.20;;;;;;4994497;28;20442;-67
2022/03/24 11:16:33;;;;;;;1999.90;999.90;;;18.10;60.40;;;;;;4994227;28;20470;-67
2022/03/24 11:19:00;;;;;;;1999.90;999.90;;;18.20;57.70;;;;;;4993948;28;20416;-67
2022/03/24 11:21:31;;;;;;;1999.90;999.90;;;18.50;59.60;;;;;;4994488;28;20523;-67
2022/03/24 11:23:58;;;;;;;1999.90;999.90;;;18.60;54.90;;;;;;4994180;28;20408;-67
2022/03/24 11:26:25;;;;;;;1999.90;999.90;;;18.40;52.30;;;;;;4994119;28;20402;-67
2022/03/24 11:28:55;;;;;;;1999.90;999.90;;;18.30;57.50;;;;;;4994019;28;20472;-67
2022/03/24 11:31:23;;;;;;;1999.90;999.90;;;18.20;58.20;;;;;;4993998;28;20506;-67
2022/03/24 11:33:56;;;;;;;1999.90;999.90;;;18.10;51.30;;;;;;4993983;28;20413;-67
2022/03/24 11:36:23;;;;;;;1999.90;999.90;;;18.40;51.60;;;;;;4993928;28;20456;-67
2022/03/24 11:38:52;;;;;;;1999.90;999.90;;;18.80;48.60;;;;;;4993933;28;20432;-70
2022/03/24 11:41:23;;;;;;;1999.90;999.90;;;19.10;48.20;;;;;;4993869;28;20491;-67
2022/03/24 11:43:53;;;;;;;1999.90;999.90;;;19.00;49.30;;;;;;4993044;28;20456;-67
2022/03/24 11:46:49;;;;;;;1999.90;999.90;;;19.00;44.20;;;;;;4993716;28;20879;-67
2022/03/24 11:49:21;;;;;;;1999.90;999.90;;;19.40;47.80;;;;;;4993816;28;20435;-69
2022/03/24 11:52:07;;;;;;;1999.90;999.90;;;19.80;44.20;;;;;;4993706;28;20410;-67
2022/03/24 11:54:35;;;;;;;1999.90;999.90;;;20.40;39.00;;;;;;4989281;28;20879;-67
2022/03/24 11:57:26;;;;;;;1999.90;999.90;;;20.90;40.50;;;;;;4993557;28;20465;-67
2022/03/24 12:00:14;;;;;;;1999.90;999.90;;;21.60;36.00;;;;;;4993519;28;20473;-67
2022/03/24 12:02:44;;;;;;;1999.90;999.90;;;22.10;37.90;;;;;;4993478;28;20459;-68
2022/03/24 12:05:11;;;;;;;1999.90;999.90;;;22.50;29.20;;;;;;4993446;28;20411;-67
2022/03/24 12:07:37;;;;;;;1999.90;999.90;;;22.60;27.40;;;;;;4993436;28;20916;-67